createdAt,value
2019-02-28T00:00:16.224Z,-3.61
2019-02-28T00:03:03.939Z,-3.59
2019-02-28T00:05:52.523Z,-3.58
2019-02-28T00:08:40.880Z,-3.53
2019-02-28T00:11:29.322Z,-3.59
2019-02-28T00:14:17.396Z,-3.67
2019-02-28T00:17:06.253Z,-3.53
2019-02-28T00:19:55.305Z,-3.56
2019-02-28T00:22:48.378Z,-3.56
2019-02-28T00:25:37.785Z,-3.47
2019-02-28T00:28:23.061Z,-3.49
2019-02-28T00:31:14.187Z,-3.47
2019-02-28T00:34:04.568Z,-3.54
2019-02-28T00:36:53.462Z,-3.73
2019-02-28T00:39:40.840Z,-3.73
2019-02-28T00:42:29.290Z,-4.11
2019-02-28T00:45:17.368Z,-4.05
2019-02-28T00:48:05.907Z,-4.08
2019-02-28T00:50:54.124Z,-4.07
2019-02-28T00:53:42.283Z,-3.96
2019-02-28T00:56:30.731Z,-3.85
2019-02-28T00:59:18.810Z,-4.29
2019-02-28T01:02:07.081Z,-4.32
2019-02-28T01:04:55.409Z,-4.21
2019-02-28T01:07:49.156Z,-3.93
2019-02-28T01:10:39.314Z,-4.11
2019-02-28T01:13:28.141Z,-4.71
2019-02-28T01:16:19.328Z,-4.94
2019-02-28T01:19:09.078Z,-4.81
2019-02-28T01:21:56.310Z,-4.89
2019-02-28T01:24:43.905Z,-4.96
2019-02-28T01:27:32.301Z,-4.58
2019-02-28T01:30:20.035Z,-4.59
2019-02-28T01:33:08.532Z,-4.56
2019-02-28T01:35:57.036Z,-4.67
2019-02-28T01:38:46.228Z,-5.07
2019-02-28T01:41:34.439Z,-4.77
2019-02-28T01:44:22.547Z,-5.26
2019-02-28T01:47:11.218Z,-5.18
2019-02-28T01:49:59.306Z,-4.77
2019-02-28T01:52:47.564Z,-4.68
2019-02-28T01:55:36.313Z,-4.48
2019-02-28T01:58:24.863Z,-4.46
2019-02-28T02:01:12.709Z,-4.49
2019-02-28T02:04:00.447Z,-4.17
2019-02-28T02:06:48.927Z,-4.13
2019-02-28T02:09:36.665Z,-3.99
2019-02-28T02:12:25.152Z,-4.04
2019-02-28T02:15:16.867Z,-3.98
2019-02-28T02:18:02.771Z,-4.04
2019-02-28T02:20:51.215Z,-4.07
2019-02-28T02:23:39.804Z,-3.95
2019-02-28T02:26:27.575Z,-4.06
2019-02-28T02:29:15.880Z,-4.00
2019-02-28T02:32:03.654Z,-3.95
2019-02-28T02:34:52.183Z,-4.11
2019-02-28T02:37:40.724Z,-4.06
2019-02-28T02:40:30.212Z,-3.96
2019-02-28T02:43:21.855Z,-3.98
2019-02-28T02:46:09.325Z,-4.63
2019-02-28T02:48:57.654Z,-5.17
2019-02-28T02:51:50.526Z,-5.19
2019-02-28T02:54:35.200Z,-5.58
2019-02-28T02:57:23.219Z,-5.63
2019-02-28T03:00:15.000Z,-5.42
2019-02-28T03:03:05.988Z,-5.26
2019-02-28T03:05:52.912Z,-5.47
2019-02-28T03:08:42.475Z,-5.38
2019-02-28T03:11:30.978Z,-5.15
2019-02-28T03:14:19.066Z,-5.00
2019-02-28T03:17:11.536Z,-4.78
2019-02-28T03:19:56.985Z,-4.65
2019-02-28T03:22:45.610Z,-4.64
2019-02-28T03:25:33.970Z,-4.99
2019-02-28T03:28:22.119Z,-5.17
2019-02-28T03:31:14.119Z,-5.05
2019-02-28T03:34:10.327Z,-5.02
2019-02-28T03:36:55.444Z,-5.30
2019-02-28T03:39:38.700Z,-5.33
2019-02-28T03:42:28.967Z,-4.94
2019-02-28T03:45:16.547Z,-4.90
2019-02-28T03:48:04.688Z,-4.81
2019-02-28T03:50:55.215Z,-4.68
2019-02-28T03:53:42.626Z,-4.72
2019-02-28T03:56:30.357Z,-4.53
2019-02-28T03:59:18.834Z,-4.85
2019-02-28T04:02:08.734Z,-5.05
2019-02-28T04:04:57.060Z,-5.44
2019-02-28T04:07:52.904Z,-5.40
2019-02-28T04:10:34.539Z,-5.20
2019-02-28T04:13:22.605Z,-5.34
2019-02-28T04:16:11.131Z,-5.41
2019-02-28T04:18:59.653Z,-5.41
2019-02-28T04:21:48.018Z,-5.42
2019-02-28T04:24:35.992Z,-5.58
2019-02-28T04:27:23.775Z,-5.56
2019-02-28T04:30:12.608Z,-5.41
2019-02-28T04:33:01.483Z,-5.29
2019-02-28T04:35:50.415Z,-5.74
2019-02-28T04:38:38.528Z,-5.75
2019-02-28T04:41:26.619Z,-6.14
2019-02-28T04:44:15.381Z,-6.61
2019-02-28T04:47:06.839Z,-6.31
2019-02-28T04:49:57.013Z,-4.81
2019-02-28T04:52:48.040Z,-4.71
2019-02-28T04:55:34.203Z,-5.35
2019-02-28T04:58:22.413Z,-5.79
2019-02-28T05:01:12.382Z,-6.35
2019-02-28T05:04:02.344Z,-6.00
2019-02-28T05:06:52.216Z,-6.02
2019-02-28T05:09:40.593Z,-5.85
2019-02-28T05:12:30.925Z,-5.64
2019-02-28T05:15:18.637Z,-5.41
2019-02-28T05:18:07.128Z,-5.26
2019-02-28T05:20:55.189Z,-5.22
2019-02-28T05:23:43.385Z,-5.17
2019-02-28T05:26:37.817Z,-5.60
2019-02-28T05:29:26.329Z,-5.30
2019-02-28T05:32:14.302Z,-4.97
2019-02-28T05:35:02.659Z,-4.78
2019-02-28T05:37:50.912Z,-5.13
2019-02-28T05:40:41.406Z,-4.67
2019-02-28T05:43:29.241Z,-4.54
2019-02-28T05:46:20.350Z,-4.45
2019-02-28T05:49:09.002Z,-4.26
2019-02-28T05:52:07.757Z,-4.14
2019-02-28T05:54:57.740Z,-3.47
2019-02-28T05:57:45.024Z,-3.41
2019-02-28T06:00:36.651Z,-3.47
2019-02-28T06:03:23.083Z,-3.26
2019-02-28T06:06:10.798Z,-4.32
2019-02-28T06:08:58.867Z,-4.30
2019-02-28T06:11:47.257Z,-4.36
2019-02-28T06:14:35.723Z,-4.07
2019-02-28T06:17:23.899Z,-4.16
2019-02-28T06:20:12.039Z,-3.79
2019-02-28T06:23:00.468Z,-3.21
2019-02-28T06:25:49.040Z,-2.77
2019-02-28T06:28:37.392Z,-2.47
2019-02-28T06:31:27.142Z,-2.42
2019-02-28T06:34:15.306Z,-2.27
2019-02-28T06:37:03.666Z,-1.95
2019-02-28T06:39:53.254Z,-1.71
2019-02-28T06:42:43.521Z,-1.98
2019-02-28T06:45:30.943Z,-1.89
2019-02-28T06:48:20.878Z,-2.06
2019-02-28T06:51:09.963Z,-2.05
2019-02-28T06:53:58.340Z,-1.89
2019-02-28T06:56:46.231Z,-1.87
2019-02-28T06:59:36.177Z,-1.72
2019-02-28T07:02:23.573Z,-1.40
2019-02-28T07:05:11.986Z,-1.06
2019-02-28T07:08:00.632Z,-0.66
2019-02-28T07:10:49.324Z,-0.48
2019-02-28T07:13:40.019Z,-0.02
2019-02-28T07:16:26.863Z,-0.01
2019-02-28T07:19:15.600Z,0.07
2019-02-28T07:22:03.948Z,0.30
2019-02-28T07:24:52.425Z,0.60
2019-02-28T07:27:40.086Z,0.59
2019-02-28T07:30:27.748Z,0.75
2019-02-28T07:33:16.359Z,1.03
2019-02-28T07:36:05.672Z,1.27
2019-02-28T07:38:53.951Z,1.34
2019-02-28T07:41:42.425Z,1.57
2019-02-28T07:44:30.838Z,1.67
2019-02-28T07:47:19.136Z,1.91
2019-02-28T07:50:10.785Z,2.35
2019-02-28T07:52:57.493Z,2.60
2019-02-28T07:55:45.800Z,2.65
2019-02-28T07:58:34.233Z,2.89
2019-02-28T08:01:24.506Z,2.50
2019-02-28T08:04:11.516Z,2.80
2019-02-28T08:06:59.599Z,3.04
2019-02-28T08:09:48.006Z,3.03
2019-02-28T08:12:35.772Z,2.92
2019-02-28T08:15:24.307Z,2.97
2019-02-28T08:18:15.730Z,3.07
2019-02-28T08:21:02.174Z,3.10
2019-02-28T08:23:49.599Z,3.32
2019-02-28T08:26:37.872Z,3.27
2019-02-28T08:29:26.215Z,3.57
2019-02-28T08:32:14.696Z,3.59
2019-02-28T08:35:02.757Z,4.02
2019-02-28T08:37:55.648Z,4.43
2019-02-28T08:40:39.972Z,4.40
2019-02-28T08:43:28.028Z,4.39
2019-02-28T08:46:16.180Z,4.62
2019-02-28T08:49:07.249Z,4.80
2019-02-28T08:51:53.951Z,4.37
2019-02-28T08:54:42.454Z,4.74
2019-02-28T08:57:30.824Z,4.86
2019-02-28T09:00:19.421Z,5.14
2019-02-28T09:03:07.158Z,4.94
2019-02-28T09:05:55.039Z,5.28
2019-02-28T09:08:42.708Z,5.40
2019-02-28T09:11:31.016Z,5.20
2019-02-28T09:14:19.336Z,5.51
2019-02-28T09:17:07.686Z,5.59
2019-02-28T09:19:56.037Z,5.61
2019-02-28T09:22:44.383Z,5.76
2019-02-28T09:25:32.275Z,5.63
2019-02-28T09:28:20.911Z,5.75
2019-02-28T09:31:09.000Z,6.00
2019-02-28T09:33:58.870Z,5.93
2019-02-28T09:36:46.153Z,6.26
2019-02-28T09:39:34.718Z,6.54
2019-02-28T09:42:23.188Z,6.35
2019-02-28T09:45:13.013Z,6.68
2019-02-28T09:48:02.307Z,6.58
2019-02-28T09:50:50.807Z,6.82
2019-02-28T09:53:38.563Z,6.93
2019-02-28T09:56:27.428Z,7.01
2019-02-28T09:59:15.474Z,7.29
2019-02-28T10:02:08.188Z,7.40
2019-02-28T10:04:52.664Z,7.67
2019-02-28T10:07:41.142Z,7.45
2019-02-28T10:10:29.528Z,7.56
2019-02-28T10:13:18.352Z,8.05
2019-02-28T10:16:06.904Z,7.82
2019-02-28T10:18:55.334Z,8.12
2019-02-28T10:21:43.723Z,7.88
2019-02-28T10:24:31.587Z,8.15
2019-02-28T10:27:20.150Z,8.20
2019-02-28T10:30:09.964Z,8.09
2019-02-28T10:32:57.631Z,8.41
2019-02-28T10:35:45.380Z,8.41
2019-02-28T10:38:33.981Z,8.56
2019-02-28T10:41:24.174Z,8.33
2019-02-28T10:44:11.953Z,8.59
2019-02-28T10:47:00.061Z,8.66
2019-02-28T10:49:47.729Z,8.44
2019-02-28T10:52:36.166Z,8.74
2019-02-28T10:55:24.571Z,8.94
2019-02-28T10:58:15.250Z,8.89
2019-02-28T11:01:07.773Z,9.25
2019-02-28T11:03:50.811Z,9.21
2019-02-28T11:06:40.208Z,9.53
2019-02-28T11:09:28.686Z,9.05
2019-02-28T11:12:19.928Z,9.57
2019-02-28T11:15:06.410Z,9.33
2019-02-28T11:17:54.548Z,9.39
2019-02-28T11:20:43.128Z,9.56
2019-02-28T11:23:31.241Z,9.65
2019-02-28T11:26:19.815Z,9.50
2019-02-28T11:29:07.470Z,9.36
2019-02-28T11:31:55.724Z,9.83
2019-02-28T11:34:45.768Z,10.02
2019-02-28T11:37:32.879Z,10.06
2019-02-28T11:40:22.542Z,10.05
2019-02-28T11:43:10.620Z,9.86
2019-02-28T11:46:00.782Z,9.87
2019-02-28T11:48:48.135Z,9.96
2019-02-28T11:51:35.881Z,10.11
2019-02-28T11:54:23.638Z,10.31
2019-02-28T11:57:13.224Z,10.11
2019-02-28T12:00:01.513Z,10.04
2019-02-28T12:02:53.343Z,9.97
2019-02-28T12:05:39.398Z,10.10
2019-02-28T12:08:27.576Z,10.34
2019-02-28T12:11:15.613Z,10.16
2019-02-28T12:14:04.000Z,10.33
2019-02-28T12:16:53.602Z,10.40
2019-02-28T12:19:41.055Z,10.34
2019-02-28T12:22:29.560Z,10.38
2019-02-28T12:25:18.580Z,10.47
2019-02-28T12:28:06.808Z,10.59
2019-02-28T12:30:57.310Z,10.88
2019-02-28T12:33:45.063Z,10.75
2019-02-28T12:36:33.105Z,10.67
2019-02-28T12:39:21.231Z,10.95
2019-02-28T12:42:09.597Z,11.16
2019-02-28T12:44:57.827Z,11.27
2019-02-28T12:47:46.180Z,11.20
2019-02-28T12:50:34.988Z,11.58
2019-02-28T12:53:25.275Z,11.68
2019-02-28T12:56:14.955Z,11.38
2019-02-28T12:59:03.803Z,11.41
2019-02-28T13:01:52.525Z,11.57
2019-02-28T13:04:40.532Z,11.56
2019-02-28T13:07:30.412Z,11.67
2019-02-28T13:10:18.739Z,11.98
2019-02-28T13:13:05.581Z,11.63
2019-02-28T13:15:46.698Z,11.82
2019-02-28T13:18:18.421Z,12.17
2019-02-28T13:20:49.741Z,12.09
2019-02-28T13:23:27.220Z,12.09
2019-02-28T13:26:01.603Z,12.02
2019-02-28T13:28:32.985Z,11.92
2019-02-28T13:31:05.352Z,12.17
2019-02-28T13:33:52.671Z,12.33
2019-02-28T13:36:24.945Z,12.40
2019-02-28T13:39:09.120Z,12.47
2019-02-28T13:41:42.949Z,12.92
2019-02-28T13:44:14.332Z,13.15
2019-02-28T13:46:49.995Z,13.24
2019-02-28T13:49:25.051Z,13.52
2019-02-28T13:51:57.676Z,13.41
2019-02-28T13:54:30.338Z,13.68
2019-02-28T13:57:08.121Z,13.95
2019-02-28T13:59:49.127Z,13.92
2019-02-28T14:02:21.669Z,13.77
2019-02-28T14:05:03.029Z,13.74
2019-02-28T14:07:33.671Z,13.47
2019-02-28T14:10:15.030Z,13.36
2019-02-28T14:12:47.146Z,13.20
2019-02-28T14:15:19.499Z,13.28
2019-02-28T14:17:52.476Z,13.46
2019-02-28T14:20:28.509Z,13.33
2019-02-28T14:23:01.708Z,13.48
2019-02-28T14:25:41.287Z,13.10
2019-02-28T14:28:32.441Z,13.05
2019-02-28T14:31:21.161Z,13.16
2019-02-28T14:34:10.292Z,13.65
2019-02-28T14:36:59.195Z,13.46
2019-02-28T14:39:48.672Z,13.87
2019-02-28T14:42:40.811Z,13.45
2019-02-28T14:45:28.763Z,13.43
2019-02-28T14:48:26.744Z,13.20
2019-02-28T14:51:16.216Z,13.78
2019-02-28T14:53:49.236Z,13.37
2019-02-28T14:56:18.008Z,13.20
2019-02-28T14:58:47.764Z,12.83
2019-02-28T15:01:20.440Z,12.27
2019-02-28T15:03:49.998Z,12.10
2019-02-28T15:06:19.757Z,12.51
2019-02-28T15:08:50.900Z,12.53
2019-02-28T15:11:21.030Z,12.18
2019-02-28T15:13:52.909Z,12.08
2019-02-28T15:16:22.137Z,12.36
2019-02-28T15:18:52.307Z,12.04
2019-02-28T15:21:23.651Z,11.58
2019-02-28T15:23:53.399Z,10.86
2019-02-28T15:26:23.260Z,10.65
2019-02-28T15:28:53.041Z,10.42
2019-02-28T15:31:22.780Z,10.34
2019-02-28T15:33:52.844Z,10.17
2019-02-28T15:36:24.146Z,9.81
2019-02-28T15:38:54.554Z,9.79
2019-02-28T15:41:24.790Z,9.65
2019-02-28T15:43:54.532Z,9.61
2019-02-28T15:46:24.287Z,9.61
2019-02-28T15:48:54.106Z,9.64
2019-02-28T15:51:25.749Z,9.51
2019-02-28T15:53:58.089Z,9.43
2019-02-28T15:56:27.936Z,9.45
2019-02-28T15:58:57.681Z,9.41
2019-02-28T16:01:28.642Z,9.30
2019-02-28T16:03:59.725Z,9.14
2019-02-28T16:06:29.459Z,9.01
2019-02-28T16:08:59.207Z,8.78
2019-02-28T16:11:29.055Z,8.72
2019-02-28T16:14:00.492Z,8.79
2019-02-28T16:16:30.292Z,8.51
2019-02-28T16:19:00.072Z,8.21
2019-02-28T16:21:29.816Z,8.22
2019-02-28T16:24:02.042Z,8.32
2019-02-28T16:26:31.577Z,8.49
2019-02-28T16:29:01.330Z,8.47
2019-02-28T16:31:31.064Z,8.53
2019-02-28T16:34:08.224Z,8.47
2019-02-28T16:36:32.237Z,8.32
2019-02-28T16:39:02.010Z,8.33
2019-02-28T16:41:33.677Z,8.42
2019-02-28T16:44:03.134Z,8.48
2019-02-28T16:46:32.873Z,8.38
2019-02-28T16:49:02.725Z,8.32
2019-02-28T16:51:32.504Z,8.19
2019-02-28T16:54:02.243Z,7.85
2019-02-28T16:56:32.038Z,7.70
2019-02-28T16:59:04.564Z,7.75
2019-02-28T17:01:34.376Z,7.84
2019-02-28T17:04:05.346Z,7.87
2019-02-28T17:06:35.568Z,7.66
2019-02-28T17:09:16.960Z,7.35
2019-02-28T17:11:54.622Z,7.51
2019-02-28T17:14:24.500Z,7.38
2019-02-28T17:17:13.133Z,7.50
2019-02-28T17:19:43.001Z,7.57
2019-02-28T17:22:12.766Z,7.34
2019-02-28T17:24:45.705Z,7.66
2019-02-28T17:27:31.795Z,7.67
2019-02-28T17:30:11.867Z,7.62
2019-02-28T17:32:41.749Z,7.54
2019-02-28T17:35:11.604Z,7.39
2019-02-28T17:37:41.357Z,7.15
2019-02-28T17:40:11.541Z,7.05
2019-02-28T17:42:41.382Z,7.14
2019-02-28T17:45:22.016Z,6.92
2019-02-28T17:48:05.740Z,6.92
2019-02-28T17:51:03.379Z,6.89
2019-02-28T17:53:48.886Z,6.84
2019-02-28T17:56:41.848Z,6.78
2019-02-28T17:59:25.461Z,6.82
2019-02-28T18:02:12.885Z,6.71
2019-02-28T18:05:03.940Z,6.77
2019-02-28T18:07:53.046Z,6.78
2019-02-28T18:10:40.556Z,6.95
2019-02-28T18:13:22.072Z,7.04
2019-02-28T18:15:59.191Z,7.15
2019-02-28T18:18:41.598Z,7.08
2019-02-28T18:21:33.668Z,7.07
2019-02-28T18:24:10.484Z,7.17
2019-02-28T18:27:02.370Z,7.27
2019-02-28T18:29:36.497Z,7.48
2019-02-28T18:32:06.244Z,7.51
2019-02-28T18:34:36.520Z,7.26
2019-02-28T18:37:06.444Z,7.04
2019-02-28T18:39:36.185Z,6.82
2019-02-28T18:42:05.937Z,6.58
2019-02-28T18:44:37.343Z,6.40
2019-02-28T18:47:07.592Z,6.46
2019-02-28T18:49:37.693Z,6.66
2019-02-28T18:52:07.598Z,6.71
2019-02-28T18:54:39.269Z,6.43
2019-02-28T18:57:08.749Z,6.43
2019-02-28T18:59:38.567Z,6.31
2019-02-28T19:02:11.094Z,6.23
2019-02-28T19:04:40.884Z,6.08
2019-02-28T19:07:10.832Z,6.02
2019-02-28T19:09:40.549Z,6.32
2019-02-28T19:12:10.415Z,6.40
2019-02-28T19:14:40.186Z,6.48
2019-02-28T19:17:09.975Z,6.34
2019-02-28T19:19:39.813Z,6.42
2019-02-28T19:22:09.566Z,6.34
2019-02-28T19:24:40.548Z,6.50
2019-02-28T19:27:10.576Z,6.54
2019-02-28T19:29:40.367Z,6.62
2019-02-28T19:32:10.381Z,6.60
2019-02-28T19:34:40.266Z,6.94
2019-02-28T19:37:10.040Z,7.15
2019-02-28T19:39:39.899Z,7.27
2019-02-28T19:42:09.717Z,7.53
2019-02-28T19:44:40.385Z,7.37
2019-02-28T19:47:10.612Z,7.41
2019-02-28T19:49:43.042Z,7.19
2019-02-28T19:52:12.891Z,7.23
2019-02-28T19:54:42.632Z,7.07
2019-02-28T19:57:12.678Z,7.15
2019-02-28T19:59:43.356Z,7.00
2019-02-28T20:02:16.742Z,7.06
2019-02-28T20:04:46.871Z,7.02
2019-02-28T20:07:16.979Z,6.76
2019-02-28T20:09:48.513Z,6.90
2019-02-28T20:12:18.364Z,6.97
2019-02-28T20:14:48.407Z,6.88
2019-02-28T20:17:18.312Z,7.00
2019-02-28T20:19:48.294Z,6.94
2019-02-28T20:22:20.053Z,6.82
2019-02-28T20:24:51.496Z,6.79
2019-02-28T20:27:21.301Z,6.80
2019-02-28T20:29:55.038Z,6.96
2019-02-28T20:32:22.912Z,7.11
2019-02-28T20:34:52.855Z,7.16
2019-02-28T20:37:22.595Z,7.13
2019-02-28T20:39:52.466Z,7.11
2019-02-28T20:42:22.329Z,7.07
2019-02-28T20:44:52.332Z,6.97
2019-02-28T20:47:22.294Z,7.11
2019-02-28T20:49:52.282Z,7.20
2019-02-28T20:52:22.385Z,7.26
2019-02-28T20:54:52.784Z,7.17
2019-02-28T20:57:26.097Z,7.63
2019-02-28T21:00:19.565Z,7.80
2019-02-28T21:03:10.017Z,7.75
2019-02-28T21:06:00.963Z,7.74
2019-02-28T21:08:53.701Z,7.98
2019-02-28T21:11:45.702Z,8.31
2019-02-28T21:14:34.269Z,8.38
2019-02-28T21:17:29.401Z,8.38
2019-02-28T21:20:13.137Z,8.53
2019-02-28T21:23:01.363Z,8.47
2019-02-28T21:25:49.193Z,8.21
2019-02-28T21:28:40.927Z,7.95
2019-02-28T21:31:29.307Z,7.81
2019-02-28T21:34:18.522Z,7.75
2019-02-28T21:37:07.491Z,8.05
2019-02-28T21:40:00.674Z,8.56
2019-02-28T21:42:49.368Z,8.44
2019-02-28T21:45:37.603Z,8.45
2019-02-28T21:48:26.100Z,8.60
2019-02-28T21:51:22.019Z,8.41
2019-02-28T21:54:10.532Z,8.62
2019-02-28T21:57:00.521Z,8.45
2019-02-28T21:59:52.325Z,8.51
2019-02-28T22:02:40.461Z,8.29
2019-02-28T22:05:32.960Z,8.40
2019-02-28T22:08:24.480Z,8.26
2019-02-28T22:11:16.066Z,7.99
2019-02-28T22:14:06.958Z,7.87
2019-02-28T22:16:56.720Z,7.76
2019-02-28T22:19:46.458Z,7.70
2019-02-28T22:22:38.513Z,7.56
2019-02-28T22:25:28.331Z,7.62
2019-02-28T22:28:17.466Z,7.45
2019-02-28T22:31:29.798Z,7.37
2019-02-28T22:34:30.115Z,7.31
2019-02-28T22:37:18.536Z,7.70
2019-02-28T22:40:07.538Z,8.17
2019-02-28T22:42:59.013Z,8.54
2019-02-28T22:45:47.681Z,8.95
2019-02-28T22:48:36.000Z,9.11
2019-02-28T22:51:25.148Z,9.05
2019-02-28T22:54:14.989Z,8.79
2019-02-28T22:57:09.237Z,8.55
2019-02-28T22:59:57.569Z,8.23
2019-02-28T23:02:46.373Z,7.83
2019-02-28T23:05:45.730Z,7.69
2019-02-28T23:08:34.206Z,7.61
2019-02-28T23:11:23.532Z,7.56
2019-02-28T23:14:16.885Z,7.62
2019-02-28T23:17:06.758Z,7.74
2019-02-28T23:19:56.383Z,7.83
2019-02-28T23:22:45.779Z,7.98
2019-02-28T23:25:45.676Z,8.19
2019-02-28T23:28:38.650Z,8.46
2019-02-28T23:31:44.407Z,8.19
2019-02-28T23:34:40.805Z,8.04
2019-02-28T23:37:29.211Z,7.81
2019-02-28T23:40:21.761Z,7.39
2019-02-28T23:43:12.557Z,7.07
2019-02-28T23:46:01.040Z,6.64
2019-02-28T23:48:53.787Z,7.27
2019-02-28T23:51:44.407Z,6.99
2019-02-28T23:54:32.930Z,6.44
2019-02-28T23:57:23.882Z,6.53
